Terminal Aerodrome Forecast
Issued by NWS

Home | Current Version | Previous Version | Text Only | Print | Product List | Glossary On
Versions: 1 2 3 4 5 6 7 8 9 10 11 12 13 14 15 16 17 18 19 20 21 22
000
FTAK31 PAJN 080200 AAA
TAFAYA
TAF AMD
PAYA 080229Z 0802/0824 27005KT P6SM -RA SCT005 BKN013 OVC025
      TEMPO 0802/0804 3SM -RA BR BKN004
     FM080400 VRB04KT 6SM -RA BR BKN020 OVC040
     FM080800 00000KT 6SM -RA BR OVC020
     FM081200 00000KT P6SM VCSH BKN010 OVC025
     FM081800 24005KT P6SM BKN020 OVC040
      AMD LTD TO CLD VIS AND WIND 0801/0810=

USA.gov is the U.S. government's official web portal to all federal, state and local government web resources and services.